createdAt,value
2019-05-19T00:00:49.158Z,99.99
2019-05-19T00:01:49.113Z,99.99
2019-05-19T00:02:49.105Z,99.99
2019-05-19T00:03:49.023Z,99.99
2019-05-19T00:04:48.975Z,99.99
2019-05-19T00:05:48.931Z,99.99
2019-05-19T00:06:48.887Z,99.99
2019-05-19T00:07:48.839Z,99.99
2019-05-19T00:08:48.796Z,99.99
2019-05-19T00:09:48.746Z,99.99
2019-05-19T00:10:48.707Z,99.99
2019-05-19T00:11:48.658Z,99.99
2019-05-19T00:12:48.613Z,99.99
2019-05-19T00:13:48.571Z,99.99
2019-05-19T00:14:48.524Z,99.99
2019-05-19T00:15:48.486Z,99.99
2019-05-19T00:16:48.437Z,99.99
2019-05-19T00:17:48.392Z,99.99
2019-05-19T00:18:48.347Z,99.99
2019-05-19T00:19:48.298Z,99.99
2019-05-19T00:20:48.256Z,99.99
2019-05-19T00:21:48.217Z,99.99
2019-05-19T00:22:48.163Z,99.99
2019-05-19T00:23:48.116Z,99.99
2019-05-19T00:24:48.071Z,99.99
2019-05-19T00:25:48.026Z,99.99
2019-05-19T00:26:48.015Z,99.99
2019-05-19T00:27:47.946Z,99.99
2019-05-19T00:28:47.890Z,99.99
2019-05-19T00:29:47.850Z,99.99
2019-05-19T00:30:47.800Z,99.99
2019-05-19T00:31:47.771Z,99.99
2019-05-19T00:32:47.719Z,99.99
2019-05-19T00:33:47.667Z,99.99
2019-05-19T00:34:47.623Z,99.99
2019-05-19T00:35:47.576Z,99.99
2019-05-19T00:36:47.533Z,99.99
2019-05-19T00:37:47.488Z,99.99
2019-05-19T00:38:47.444Z,99.99
2019-05-19T00:39:47.401Z,99.99
2019-05-19T00:40:47.349Z,99.99
2019-05-19T00:41:47.304Z,99.99
2019-05-19T00:42:47.262Z,99.99
2019-05-19T00:43:47.212Z,99.99
2019-05-19T00:44:47.165Z,99.99
2019-05-19T00:45:47.132Z,99.99
2019-05-19T00:46:47.079Z,99.99
2019-05-19T00:47:47.034Z,99.99
2019-05-19T00:48:46.987Z,99.99
2019-05-19T00:49:46.941Z,99.99
2019-05-19T00:50:46.912Z,99.99
2019-05-19T00:51:46.850Z,99.99
2019-05-19T00:52:46.816Z,99.99
2019-05-19T00:53:46.757Z,99.99
2019-05-19T00:54:46.718Z,99.99
2019-05-19T00:55:46.668Z,99.99
2019-05-19T00:56:46.619Z,99.99
2019-05-19T00:57:46.580Z,99.99
2019-05-19T00:58:46.531Z,99.99
2019-05-19T00:59:46.485Z,99.99
2019-05-19T01:00:46.446Z,99.99
2019-05-19T01:01:46.398Z,99.99
2019-05-19T01:02:46.350Z,99.99
2019-05-19T01:03:46.305Z,99.99
2019-05-19T01:04:46.258Z,99.99
2019-05-19T01:05:46.215Z,99.99
2019-05-19T01:06:46.171Z,99.99
2019-05-19T01:07:46.121Z,99.99
2019-05-19T01:08:46.079Z,99.99
2019-05-19T01:09:46.034Z,99.99
2019-05-19T01:10:45.986Z,99.99
2019-05-19T01:11:45.945Z,99.99
2019-05-19T01:12:45.895Z,99.99
2019-05-19T01:13:45.850Z,99.99
2019-05-19T01:14:45.806Z,99.99
2019-05-19T01:15:45.758Z,99.99
2019-05-19T01:16:45.711Z,99.99
2019-05-19T01:17:45.668Z,99.99
2019-05-19T01:18:45.624Z,99.99
2019-05-19T01:19:55.718Z,99.99
2019-05-19T01:20:45.530Z,99.99
2019-05-19T01:21:45.511Z,99.99
2019-05-19T01:22:45.493Z,99.99
2019-05-19T01:23:45.395Z,99.99
2019-05-19T01:24:45.347Z,99.99
2019-05-19T01:25:45.305Z,99.99
2019-05-19T01:26:45.256Z,99.99
2019-05-19T01:27:45.210Z,99.99
2019-05-19T01:28:45.165Z,99.99
2019-05-19T01:29:45.118Z,99.99
2019-05-19T01:30:45.072Z,99.99
2019-05-19T01:31:45.032Z,99.99
2019-05-19T01:32:44.984Z,99.99
2019-05-19T01:33:44.939Z,99.99
2019-05-19T01:34:44.889Z,99.99
2019-05-19T01:35:44.847Z,99.99
2019-05-19T01:36:44.803Z,99.99
2019-05-19T01:37:44.757Z,99.99
2019-05-19T01:38:44.719Z,99.99
2019-05-19T01:39:44.666Z,99.99
2019-05-19T01:40:44.617Z,99.99
2019-05-19T01:41:44.571Z,99.99
2019-05-19T01:42:44.524Z,99.99
2019-05-19T01:43:44.480Z,99.99
2019-05-19T01:44:44.437Z,99.99
2019-05-19T01:45:44.393Z,99.99
2019-05-19T01:46:44.346Z,99.99
2019-05-19T01:47:44.296Z,99.99
2019-05-19T01:48:44.248Z,99.99
2019-05-19T01:49:44.203Z,99.99
2019-05-19T01:50:44.162Z,99.99
2019-05-19T01:51:44.116Z,99.99
2019-05-19T01:52:44.069Z,99.99
2019-05-19T01:53:44.021Z,99.99
2019-05-19T01:54:43.977Z,99.99
2019-05-19T01:55:43.928Z,99.99
2019-05-19T01:56:43.886Z,99.99
2019-05-19T01:57:43.841Z,99.99
2019-05-19T01:58:43.808Z,99.99
2019-05-19T01:59:43.748Z,99.99
2019-05-19T02:00:43.705Z,99.99
2019-05-19T02:02:43.611Z,99.99
2019-05-19T02:03:43.564Z,99.99
2019-05-19T02:04:43.517Z,99.99
2019-05-19T02:05:43.471Z,99.99
2019-05-19T02:06:43.478Z,99.99
2019-05-19T02:07:43.384Z,99.99
2019-05-19T02:08:43.333Z,99.99
2019-05-19T02:09:43.300Z,99.99
2019-05-19T02:10:43.247Z,99.99
2019-05-19T02:11:43.195Z,99.99
2019-05-19T02:12:43.150Z,99.99
2019-05-19T02:13:43.104Z,99.99
2019-05-19T02:14:43.058Z,99.99
2019-05-19T02:15:43.040Z,99.99
2019-05-19T02:16:42.967Z,99.99
2019-05-19T02:17:42.922Z,99.99
2019-05-19T02:18:42.876Z,99.99
2019-05-19T02:19:42.831Z,99.99
2019-05-19T02:20:42.794Z,99.99
2019-05-19T02:21:42.735Z,99.99
2019-05-19T02:23:35.078Z,99.99
2019-05-19T02:24:35.027Z,99.99
2019-05-19T02:25:34.984Z,99.99
2019-05-19T02:26:34.935Z,99.99
2019-05-19T02:27:34.893Z,99.99
2019-05-19T02:28:34.862Z,99.99
2019-05-19T02:29:34.800Z,99.99
2019-05-19T02:30:34.764Z,99.99
2019-05-19T02:31:34.720Z,99.99
2019-05-19T02:32:34.665Z,99.99
2019-05-19T02:33:35.786Z,99.99
2019-05-19T02:34:34.571Z,99.99
2019-05-19T02:35:34.520Z,99.99
2019-05-19T02:36:34.475Z,99.99
2019-05-19T02:37:34.431Z,99.99
2019-05-19T02:38:34.385Z,99.99
2019-05-19T02:39:34.346Z,99.99
2019-05-19T02:40:34.302Z,99.99
2019-05-19T02:41:34.246Z,99.99
2019-05-19T02:42:34.201Z,99.99
2019-05-19T02:43:34.156Z,99.99
2019-05-19T02:44:34.106Z,99.99
2019-05-19T02:45:34.066Z,99.99
2019-05-19T02:46:34.071Z,99.99
2019-05-19T02:47:33.981Z,99.99
2019-05-19T02:48:33.930Z,99.99
2019-05-19T02:49:33.889Z,99.99
2019-05-19T02:50:50.999Z,99.99
2019-05-19T02:51:33.834Z,99.99
2019-05-19T02:52:33.741Z,99.99
2019-05-19T02:54:33.653Z,99.99
2019-05-19T02:55:33.606Z,99.99
2019-05-19T02:57:20.941Z,99.99
2019-05-19T02:58:20.887Z,99.99
2019-05-19T02:59:20.843Z,99.99
2019-05-19T03:00:20.795Z,99.99
2019-05-19T03:01:20.750Z,99.99
2019-05-19T03:02:20.711Z,99.99
2019-05-19T03:03:20.677Z,99.99
2019-05-19T03:04:20.695Z,99.99
2019-05-19T03:05:20.621Z,99.99
2019-05-19T03:06:20.568Z,99.99
2019-05-19T03:07:20.530Z,99.99
2019-05-19T03:08:20.438Z,99.99
2019-05-19T03:09:20.388Z,99.99
2019-05-19T03:10:20.372Z,99.99
2019-05-19T03:11:20.292Z,99.99
2019-05-19T03:12:20.247Z,99.99
2019-05-19T03:13:20.204Z,99.99
2019-05-19T03:14:20.156Z,99.99
2019-05-19T03:15:20.115Z,99.99
2019-05-19T03:16:20.070Z,99.99
2019-05-19T03:17:20.025Z,99.99
2019-05-19T03:18:20.040Z,99.99
2019-05-19T03:19:19.971Z,99.99
2019-05-19T03:20:19.889Z,99.99
2019-05-19T03:21:19.842Z,99.99
2019-05-19T03:33:31.506Z,99.99
2019-05-19T03:34:31.412Z,99.99
2019-05-19T03:35:31.380Z,99.99
2019-05-19T03:36:31.319Z,99.99
2019-05-19T03:37:31.276Z,99.99
2019-05-19T03:38:31.314Z,99.99
2019-05-19T03:39:31.193Z,99.99
2019-05-19T03:40:31.141Z,99.99
2019-05-19T03:41:31.097Z,99.99
2019-05-19T03:42:31.049Z,99.99
2019-05-19T03:43:31.007Z,99.99
2019-05-19T03:44:30.969Z,99.99
2019-05-19T03:45:30.910Z,99.99
2019-05-19T03:46:30.867Z,99.99
2019-05-19T03:47:30.818Z,99.99
2019-05-19T03:48:30.777Z,99.99
2019-05-19T03:49:30.734Z,99.99
2019-05-19T03:50:30.680Z,99.99
2019-05-19T03:52:28.021Z,99.99
2019-05-19T03:53:27.975Z,99.99
2019-05-19T03:54:27.932Z,99.99
2019-05-19T03:55:27.887Z,99.99
2019-05-19T03:56:27.852Z,99.99
2019-05-19T03:57:30.817Z,99.99
2019-05-19T03:58:27.746Z,99.99
2019-05-19T04:00:27.655Z,99.99
2019-05-19T04:02:40.021Z,99.99
2019-05-19T04:03:39.969Z,99.99
2019-05-19T04:04:39.925Z,99.99
2019-05-19T04:05:39.879Z,99.99
2019-05-19T04:06:39.831Z,99.99
2019-05-19T04:07:39.804Z,99.99
2019-05-19T04:08:39.806Z,99.99
2019-05-19T04:09:39.716Z,99.99
2019-05-19T04:10:39.651Z,99.99
2019-05-19T04:11:39.609Z,99.99
2019-05-19T04:12:39.566Z,99.99
2019-05-19T04:13:39.514Z,99.99
2019-05-19T04:14:39.470Z,99.99
2019-05-19T04:15:39.434Z,99.99
2019-05-19T04:16:39.392Z,99.99
2019-05-19T04:17:39.338Z,99.99
2019-05-19T04:18:39.292Z,99.99
2019-05-19T04:19:39.244Z,99.99
2019-05-19T04:20:39.202Z,99.99
2019-05-19T04:21:48.828Z,99.99
2019-05-19T04:22:39.108Z,99.99
2019-05-19T04:23:39.062Z,99.99
2019-05-19T04:24:39.017Z,99.99
2019-05-19T04:25:38.974Z,99.99
2019-05-19T04:26:38.929Z,99.99
2019-05-19T04:27:38.882Z,99.99
2019-05-19T04:29:39.598Z,99.99
2019-05-19T04:30:38.751Z,99.99
2019-05-19T04:31:38.701Z,99.99
2019-05-19T04:33:38.615Z,99.99
2019-05-19T04:34:38.576Z,99.99
2019-05-19T04:35:38.639Z,99.99
2019-05-19T04:36:38.495Z,99.99
2019-05-19T04:37:38.447Z,99.99
2019-05-19T04:38:38.401Z,99.99
2019-05-19T04:39:38.384Z,99.99
2019-05-19T04:44:47.102Z,99.99
2019-05-19T04:45:47.057Z,99.99
2019-05-19T04:46:47.010Z,99.99
2019-05-19T04:47:46.969Z,99.99
2019-05-19T04:48:46.918Z,99.99
2019-05-19T04:49:46.874Z,99.99
2019-05-19T04:50:46.830Z,99.99
2019-05-19T04:55:55.587Z,99.99
2019-05-19T04:56:55.535Z,99.99
2019-05-19T04:57:55.499Z,99.99
2019-05-19T04:58:55.458Z,99.99
2019-05-19T04:59:55.403Z,99.99
2019-05-19T05:00:55.357Z,99.99
2019-05-19T05:01:55.314Z,99.99
2019-05-19T05:02:55.269Z,99.99
2019-05-19T05:03:55.226Z,99.99
2019-05-19T05:05:42.554Z,99.99
2019-05-19T05:06:42.505Z,99.99
2019-05-19T05:07:42.468Z,99.99
2019-05-19T05:08:42.430Z,99.99
2019-05-19T05:09:42.370Z,99.99
2019-05-19T05:10:42.328Z,99.99
2019-05-19T05:13:09.702Z,99.99
2019-05-19T05:14:09.651Z,99.99
2019-05-19T05:15:09.609Z,99.99
2019-05-19T05:16:09.564Z,99.99
2019-05-19T05:17:09.521Z,99.99
2019-05-19T05:18:09.480Z,99.99
2019-05-19T05:19:09.427Z,99.99
2019-05-19T05:20:09.382Z,99.99
2019-05-19T05:21:09.342Z,99.99
2019-05-19T05:22:21.285Z,99.99
2019-05-19T06:07:54.344Z,99.99
2019-05-19T06:08:54.296Z,99.99
2019-05-19T06:09:54.301Z,99.99
2019-05-19T06:10:54.205Z,99.99
2019-05-19T06:11:54.159Z,99.99
2019-05-19T06:12:54.115Z,99.99
2019-05-19T06:13:54.077Z,99.99
2019-05-19T06:14:54.024Z,99.99
2019-05-19T06:15:53.978Z,99.99
2019-05-19T06:16:53.935Z,99.99
2019-05-19T06:17:53.951Z,99.99
2019-05-19T06:18:56.704Z,99.99
2019-05-19T06:19:53.796Z,99.99
2019-05-19T06:20:53.751Z,99.99
2019-05-19T06:21:53.708Z,99.99
2019-05-19T06:22:57.045Z,99.99
2019-05-19T06:23:53.631Z,99.99
2019-05-19T06:24:53.573Z,99.99
2019-05-19T06:25:53.529Z,99.99
2019-05-19T06:26:53.482Z,99.99
2019-05-19T06:27:53.436Z,99.99
2019-05-19T06:28:53.389Z,99.99
2019-05-19T06:29:53.344Z,99.99
2019-05-19T06:30:53.304Z,99.99
2019-05-19T06:31:53.256Z,99.99
2019-05-19T06:32:53.210Z,99.99
2019-05-19T06:33:53.169Z,99.99
2019-05-19T06:34:53.126Z,99.99
2019-05-19T06:35:53.083Z,99.99
2019-05-19T06:36:55.081Z,99.99
2019-05-19T06:37:52.988Z,99.99
2019-05-19T06:38:52.950Z,99.99
2019-05-19T06:39:52.900Z,99.99
2019-05-19T06:40:52.851Z,99.99
2019-05-19T06:41:52.807Z,99.99
2019-05-19T06:42:52.781Z,99.99
2019-05-19T06:43:52.724Z,99.99
2019-05-19T06:44:52.673Z,99.99
2019-05-19T06:45:52.633Z,99.99
2019-05-19T06:46:52.585Z,99.99
2019-05-19T06:47:52.551Z,99.99
2019-05-19T06:48:52.516Z,99.99
2019-05-19T06:49:52.452Z,99.99
2019-05-19T06:50:52.411Z,99.99
2019-05-19T06:51:52.367Z,99.99
2019-05-19T06:52:52.321Z,99.99
2019-05-19T06:53:52.275Z,99.99
2019-05-19T06:54:52.232Z,99.99
2019-05-19T06:55:52.181Z,99.99
2019-05-19T06:56:52.145Z,99.99
2019-05-19T06:57:52.098Z,99.99
2019-05-19T06:58:52.049Z,99.99
2019-05-19T06:59:52.009Z,99.99
2019-05-19T07:00:51.966Z,99.99
2019-05-19T07:01:51.920Z,99.99
2019-05-19T07:02:51.874Z,99.99
2019-05-19T07:03:51.830Z,99.99
2019-05-19T07:04:51.781Z,99.99
2019-05-19T07:05:51.740Z,99.99
2019-05-19T07:06:51.840Z,99.99
2019-05-19T07:07:51.651Z,99.99
2019-05-19T07:08:51.608Z,99.99
2019-05-19T07:09:58.472Z,99.99
2019-05-19T07:10:51.520Z,99.99
2019-05-19T07:11:51.484Z,99.99
2019-05-19T07:12:51.430Z,99.99
2019-05-19T07:13:51.385Z,99.99
2019-05-19T07:14:51.341Z,99.99
2019-05-19T07:15:51.295Z,99.99
2019-05-19T07:16:51.306Z,99.99
2019-05-19T07:17:51.208Z,99.99
2019-05-19T07:18:51.162Z,99.99
2019-05-19T07:19:51.122Z,99.99
2019-05-19T07:20:51.071Z,99.99
2019-05-19T07:21:51.051Z,99.99
2019-05-19T07:22:50.979Z,99.99
2019-05-19T07:23:50.938Z,99.99
2019-05-19T07:24:50.894Z,99.99
2019-05-19T07:25:50.850Z,99.99
2019-05-19T07:26:50.805Z,99.99
2019-05-19T07:27:50.760Z,99.99
2019-05-19T07:28:50.716Z,99.99
2019-05-19T07:29:50.675Z,99.49
2019-05-19T07:30:50.630Z,99.01
2019-05-19T07:31:50.590Z,98.82
2019-05-19T07:32:50.545Z,99.29
2019-05-19T07:33:50.500Z,99.58
2019-05-19T07:34:50.451Z,99.29
2019-05-19T07:35:50.408Z,98.72
2019-05-19T07:36:50.363Z,98.43
2019-05-19T07:37:50.317Z,98.58
2019-05-19T07:38:50.275Z,99.15
2019-05-19T07:39:50.231Z,98.58
2019-05-19T07:40:50.193Z,98.00
2019-05-19T07:41:50.178Z,98.10
2019-05-19T07:42:50.095Z,98.19
2019-05-19T07:43:50.054Z,98.00
2019-05-19T07:44:50.011Z,98.00
2019-05-19T07:45:49.967Z,97.19
2019-05-19T07:46:49.923Z,96.99
2019-05-19T07:47:49.896Z,96.99
2019-05-19T07:48:49.839Z,96.22
2019-05-19T07:49:49.792Z,95.45
2019-05-19T07:50:49.744Z,94.98
2019-05-19T07:51:49.704Z,94.98
2019-05-19T07:52:49.681Z,94.78
2019-05-19T07:53:49.616Z,93.87
2019-05-19T07:54:49.569Z,93.39
2019-05-19T07:55:49.528Z,93.58
2019-05-19T07:56:49.485Z,93.58
2019-05-19T07:57:49.440Z,91.75
2019-05-19T07:58:49.399Z,91.56
2019-05-19T07:59:49.352Z,92.72
2019-05-19T08:00:49.311Z,91.28
2019-05-19T08:01:49.266Z,91.95
2019-05-19T08:03:49.186Z,90.55
2019-05-19T08:04:49.136Z,90.94
2019-05-19T08:05:49.093Z,91.42
2019-05-19T08:06:49.050Z,90.75
2019-05-19T08:07:49.042Z,89.50
2019-05-19T08:08:48.961Z,88.92
2019-05-19T08:09:48.915Z,85.75
2019-05-19T08:10:48.873Z,84.50
2019-05-19T08:11:48.829Z,85.07
2019-05-19T08:12:48.791Z,84.88
2019-05-19T08:13:48.742Z,85.31
2019-05-19T08:14:48.697Z,85.88
2019-05-19T08:15:48.653Z,83.67
2019-05-19T08:16:48.615Z,83.96
2019-05-19T08:17:48.570Z,84.44
2019-05-19T08:18:48.526Z,84.16
2019-05-19T08:19:48.483Z,82.17
2019-05-19T08:20:48.439Z,81.37
2019-05-19T08:21:48.396Z,81.40
2019-05-19T08:22:51.294Z,82.37
2019-05-19T08:23:59.860Z,81.12
2019-05-19T08:24:48.269Z,80.06
2019-05-19T08:25:48.228Z,79.19
2019-05-19T08:26:48.182Z,78.90
2019-05-19T08:27:48.137Z,78.71
2019-05-19T08:28:48.096Z,78.65
2019-05-19T08:29:48.061Z,78.94
2019-05-19T08:30:48.010Z,78.23
2019-05-19T08:31:47.971Z,77.21
2019-05-19T08:32:47.930Z,76.82
2019-05-19T08:33:47.896Z,77.50
2019-05-19T08:34:47.837Z,77.88
2019-05-19T08:35:47.796Z,77.69
2019-05-19T08:36:47.769Z,77.98
2019-05-19T08:37:47.709Z,78.46
2019-05-19T08:38:47.664Z,79.33
2019-05-19T08:39:47.619Z,78.65
2019-05-19T08:40:47.606Z,77.83
2019-05-19T08:41:47.533Z,77.92
2019-05-19T08:42:47.493Z,77.73
2019-05-19T08:43:47.454Z,77.63
2019-05-19T08:44:47.408Z,77.53
2019-05-19T08:45:47.372Z,77.53
2019-05-19T08:46:47.322Z,76.67
2019-05-19T08:47:47.281Z,76.86
2019-05-19T08:48:47.238Z,75.16
2019-05-19T08:49:47.196Z,74.68
2019-05-19T08:50:47.153Z,75.36
2019-05-19T08:51:47.113Z,75.16
2019-05-19T08:52:47.077Z,75.36
2019-05-19T08:53:47.031Z,75.84
2019-05-19T08:54:46.992Z,74.82
2019-05-19T08:55:46.936Z,74.72
2019-05-19T08:56:46.896Z,72.79
2019-05-19T08:57:46.856Z,73.95
2019-05-19T08:58:46.811Z,73.57
2019-05-19T08:59:46.797Z,73.75
2019-05-19T09:00:46.732Z,73.66
2019-05-19T09:01:46.688Z,71.67
2019-05-19T09:02:46.643Z,72.44
2019-05-19T09:03:46.597Z,71.77
2019-05-19T09:04:46.562Z,71.09
2019-05-19T09:05:47.962Z,70.80
2019-05-19T09:06:46.476Z,71.77
2019-05-19T09:07:46.430Z,71.38
2019-05-19T09:08:46.389Z,70.84
2019-05-19T09:09:46.347Z,71.22
2019-05-19T09:10:46.308Z,71.03
2019-05-19T09:11:47.945Z,67.75
2019-05-19T09:12:46.221Z,68.71
2019-05-19T09:13:46.176Z,68.71
2019-05-19T09:16:46.055Z,68.52
2019-05-19T09:17:46.015Z,68.07
2019-05-19T09:18:45.971Z,70.00
2019-05-19T09:19:45.933Z,70.06
2019-05-19T09:20:45.888Z,70.20
2019-05-19T09:21:45.846Z,69.42
2019-05-19T09:22:45.800Z,68.55
2019-05-19T09:23:45.761Z,68.07
2019-05-19T09:24:45.716Z,67.69
2019-05-19T09:25:45.682Z,66.72
2019-05-19T09:26:45.639Z,66.05
2019-05-19T09:27:45.597Z,65.98
2019-05-19T09:28:45.552Z,66.17
2019-05-19T09:29:45.512Z,65.78
2019-05-19T09:30:45.470Z,65.20
2019-05-19T09:31:45.432Z,64.43
2019-05-19T09:33:45.342Z,65.01
2019-05-19T09:34:45.301Z,64.72
2019-05-19T09:35:45.260Z,65.11
2019-05-19T09:36:45.222Z,65.11
2019-05-19T09:37:45.177Z,64.92
2019-05-19T09:38:45.137Z,65.92
2019-05-19T09:39:45.098Z,64.85
2019-05-19T09:40:45.052Z,61.18
2019-05-19T09:41:45.013Z,60.60
2019-05-19T09:42:44.973Z,60.69
2019-05-19T09:43:44.928Z,61.47
2019-05-19T09:44:44.893Z,61.47
2019-05-19T09:45:44.847Z,62.47
2019-05-19T09:46:44.803Z,61.37
2019-05-19T09:47:44.766Z,61.11
2019-05-19T09:48:44.723Z,61.08
2019-05-19T09:49:44.686Z,61.02
2019-05-19T09:50:44.640Z,60.92
2019-05-19T09:51:44.595Z,60.72
2019-05-19T09:52:44.556Z,59.56
2019-05-19T09:53:44.524Z,57.82
2019-05-19T09:54:45.749Z,58.80
2019-05-19T09:55:44.433Z,59.11
2019-05-19T09:56:44.391Z,59.40
2019-05-19T09:57:44.352Z,58.63
2019-05-19T09:58:44.311Z,58.72
2019-05-19T09:59:44.275Z,57.86
2019-05-19T10:00:44.229Z,56.88
2019-05-19T10:01:44.188Z,56.79
2019-05-19T10:02:44.146Z,57.08
2019-05-19T10:03:44.110Z,56.92
2019-05-19T10:04:44.087Z,55.76
2019-05-19T10:05:44.026Z,55.36
2019-05-19T10:06:44.040Z,54.98
2019-05-19T10:07:43.948Z,54.59
2019-05-19T10:08:43.902Z,55.56
2019-05-19T10:09:43.862Z,54.01
2019-05-19T10:10:43.823Z,54.01
2019-05-19T10:11:43.779Z,54.98
2019-05-19T10:12:43.741Z,53.85
2019-05-19T10:13:43.703Z,53.85
2019-05-19T10:14:43.657Z,53.75
2019-05-19T10:15:43.617Z,54.91
2019-05-19T10:16:43.577Z,54.74
2019-05-19T10:17:43.536Z,53.67
2019-05-19T10:18:43.589Z,53.58
2019-05-19T10:19:43.452Z,54.06
2019-05-19T10:20:43.414Z,52.73
2019-05-19T10:21:43.397Z,52.15
2019-05-19T10:22:43.331Z,52.44
2019-05-19T10:23:43.293Z,53.51
2019-05-19T10:24:59.244Z,52.83
2019-05-19T10:25:43.213Z,53.24
2019-05-19T10:26:43.181Z,51.98
2019-05-19T10:27:43.138Z,51.89
2019-05-19T10:28:43.093Z,50.34
2019-05-19T10:29:43.051Z,51.11
2019-05-19T10:30:43.012Z,50.34
2019-05-19T10:31:42.969Z,49.95
2019-05-19T10:32:42.933Z,49.95
2019-05-19T10:33:42.889Z,49.17
2019-05-19T10:34:42.848Z,48.80
2019-05-19T10:35:42.808Z,47.93
2019-05-19T10:36:42.776Z,49.49
2019-05-19T10:37:42.730Z,49.77
2019-05-19T10:38:42.687Z,49.39
2019-05-19T10:39:42.651Z,49.19
2019-05-19T10:40:42.610Z,49.41
2019-05-19T10:41:42.573Z,50.19
2019-05-19T10:42:42.535Z,49.61
2019-05-19T10:43:42.489Z,49.02
2019-05-19T10:44:42.452Z,49.22
2019-05-19T10:45:42.410Z,48.35
2019-05-19T10:46:42.372Z,48.66
2019-05-19T10:49:07.126Z,49.82
2019-05-19T10:50:07.079Z,48.37
2019-05-19T10:51:07.043Z,47.98
2019-05-19T10:52:07.002Z,47.69
2019-05-19T10:53:06.963Z,47.88
2019-05-19T10:54:06.921Z,47.13
2019-05-19T10:55:06.883Z,47.61
2019-05-19T10:56:06.844Z,47.91
2019-05-19T10:57:06.803Z,48.10
2019-05-19T10:58:06.765Z,46.94
2019-05-19T10:59:06.727Z,46.06
2019-05-19T11:00:06.689Z,46.45
2019-05-19T11:01:06.642Z,47.32
2019-05-19T11:02:06.610Z,46.37
2019-05-19T11:03:06.569Z,44.62
2019-05-19T11:04:06.532Z,44.04
2019-05-19T11:05:06.491Z,44.04
2019-05-19T11:06:06.459Z,44.33
2019-05-19T11:07:06.423Z,44.82
2019-05-19T11:08:06.371Z,44.43
2019-05-19T11:09:06.333Z,44.84
2019-05-19T11:10:06.297Z,44.84
2019-05-19T11:11:06.256Z,44.94
2019-05-19T11:12:06.218Z,46.03
2019-05-19T11:13:06.176Z,45.18
2019-05-19T11:14:06.134Z,44.76
2019-05-19T11:15:06.102Z,44.79
2019-05-19T11:16:06.060Z,44.13
2019-05-19T11:17:06.019Z,44.69
2019-05-19T11:18:06.611Z,44.81
2019-05-19T11:19:05.943Z,45.00
2019-05-19T11:20:05.915Z,45.03
2019-05-19T11:21:05.866Z,44.52
2019-05-19T11:22:05.823Z,43.85
2019-05-19T11:23:05.794Z,44.71
2019-05-19T11:24:05.759Z,44.03
2019-05-19T11:25:05.714Z,43.84
2019-05-19T11:26:05.716Z,43.35
2019-05-19T11:27:05.640Z,43.13
2019-05-19T11:28:05.595Z,43.13
2019-05-19T11:29:05.562Z,44.20
2019-05-19T11:30:05.524Z,44.59
2019-05-19T11:31:05.482Z,44.09
2019-05-19T11:32:05.442Z,44.20
2019-05-19T11:33:05.404Z,43.60
2019-05-19T11:34:05.364Z,42.72
2019-05-19T11:35:05.331Z,43.01
2019-05-19T11:36:05.290Z,43.01
2019-05-19T11:37:07.296Z,43.09
2019-05-19T11:38:05.212Z,42.91
2019-05-19T11:39:05.234Z,44.09
2019-05-19T11:40:05.133Z,43.21
2019-05-19T11:41:05.095Z,43.11
2019-05-19T11:42:05.055Z,44.40
2019-05-19T11:43:05.020Z,42.74
2019-05-19T11:44:04.991Z,42.84
2019-05-19T11:46:04.905Z,42.96
2019-05-19T11:47:04.859Z,41.69
2019-05-19T11:48:47.232Z,40.35
2019-05-19T11:50:47.139Z,39.80
2019-05-19T11:51:47.119Z,39.51
2019-05-19T11:52:47.066Z,38.34
2019-05-19T11:53:47.025Z,38.94
2019-05-19T11:54:46.990Z,38.16
2019-05-19T11:55:46.953Z,36.90
2019-05-19T11:56:46.912Z,37.09
2019-05-19T11:57:46.872Z,37.96
2019-05-19T11:58:46.841Z,37.75
2019-05-19T11:59:46.795Z,37.95
2019-05-19T12:00:46.760Z,37.85
2019-05-19T12:01:46.720Z,37.46
2019-05-19T12:02:46.679Z,38.12
2019-05-19T12:03:46.645Z,37.83
2019-05-19T12:04:46.611Z,37.73
2019-05-19T12:05:46.574Z,38.10
2019-05-19T12:06:46.529Z,37.91
2019-05-19T12:07:46.488Z,36.65
2019-05-19T12:08:46.457Z,38.09
2019-05-19T12:09:46.413Z,39.55
2019-05-19T12:11:46.340Z,38.17
2019-05-19T12:12:46.299Z,38.75
2019-05-19T12:13:46.267Z,38.93
2019-05-19T12:14:46.224Z,39.61
2019-05-19T12:15:46.191Z,39.29
2019-05-19T12:16:46.146Z,39.49
2019-05-19T12:17:46.118Z,39.69
2019-05-19T12:18:46.066Z,40.27
2019-05-19T12:19:46.030Z,39.98
2019-05-19T12:20:45.986Z,39.20
2019-05-19T12:21:45.950Z,39.20
2019-05-19T12:22:45.910Z,39.20
2019-05-19T12:23:45.868Z,39.41
2019-05-19T12:24:45.831Z,38.46
2019-05-19T12:25:45.796Z,38.09
2019-05-19T12:26:45.753Z,37.73
2019-05-19T12:27:45.731Z,35.55
2019-05-19T12:28:45.677Z,36.26
2019-05-19T12:29:45.636Z,33.97
2019-05-19T12:30:45.595Z,34.49
2019-05-19T12:31:45.562Z,33.05
2019-05-19T12:32:45.538Z,32.40
2019-05-19T12:33:52.065Z,31.76
2019-05-19T12:34:45.443Z,30.31
2019-05-19T12:35:45.416Z,27.57
2019-05-19T12:36:45.373Z,27.50
2019-05-19T12:37:45.328Z,27.30
2019-05-19T12:38:45.289Z,26.34
2019-05-19T12:39:45.256Z,26.06
2019-05-19T12:40:45.216Z,26.26
2019-05-19T12:41:45.182Z,26.28
2019-05-19T12:42:45.144Z,24.60
2019-05-19T12:43:45.107Z,24.60
2019-05-19T12:44:45.078Z,25.48
2019-05-19T12:45:45.049Z,24.77
2019-05-19T12:46:45.000Z,25.04
2019-05-19T12:47:44.961Z,26.50
2019-05-19T12:48:44.927Z,27.45
2019-05-19T12:49:44.892Z,27.43
2019-05-19T12:50:44.863Z,29.09
2019-05-19T12:51:44.819Z,30.15
2019-05-19T12:52:44.783Z,30.73
2019-05-19T12:53:44.749Z,30.52
2019-05-19T12:54:44.715Z,30.60
2019-05-19T12:55:44.675Z,30.78
2019-05-19T12:56:44.636Z,31.57
2019-05-19T12:57:44.603Z,31.74
2019-05-19T12:58:44.567Z,32.32
2019-05-19T13:00:44.495Z,31.42
2019-05-19T13:01:44.459Z,30.52
2019-05-19T13:02:44.426Z,30.82
2019-05-19T13:03:44.386Z,32.27
2019-05-19T13:04:44.351Z,31.87
2019-05-19T13:05:44.310Z,32.84
2019-05-19T13:06:44.274Z,33.53
2019-05-19T13:07:44.251Z,34.48
2019-05-19T13:08:44.199Z,34.48
2019-05-19T13:09:44.163Z,34.19
2019-05-19T13:10:44.131Z,33.70
2019-05-19T13:11:44.086Z,34.39
2019-05-19T13:12:44.053Z,34.88
2019-05-19T13:13:44.015Z,34.19
2019-05-19T13:14:43.981Z,34.00
2019-05-19T13:15:43.944Z,33.80
2019-05-19T13:16:43.906Z,32.35
2019-05-19T13:17:43.868Z,32.75
2019-05-19T13:18:43.827Z,31.78
2019-05-19T13:19:43.787Z,31.70
2019-05-19T13:20:43.757Z,30.64
2019-05-19T13:21:43.724Z,30.25
2019-05-19T13:22:43.688Z,30.64
2019-05-19T13:23:43.647Z,30.83
2019-05-19T13:24:43.602Z,31.13
2019-05-19T13:25:43.562Z,31.62
2019-05-19T13:26:55.548Z,31.52
2019-05-19T13:27:43.500Z,31.71
2019-05-19T13:28:43.461Z,32.01
2019-05-19T13:29:43.414Z,30.74
2019-05-19T13:30:43.818Z,31.32
2019-05-19T13:31:43.361Z,31.70
2019-05-19T13:32:43.303Z,31.70
2019-05-19T13:33:43.341Z,32.68
2019-05-19T13:34:43.226Z,33.75
2019-05-19T13:35:43.202Z,33.84
2019-05-19T13:36:43.157Z,34.03
2019-05-19T13:37:43.128Z,33.84
2019-05-19T13:38:43.078Z,34.70
2019-05-19T13:39:43.046Z,34.11
2019-05-19T13:40:43.009Z,33.62
2019-05-19T13:41:42.979Z,33.92
2019-05-19T13:42:42.940Z,35.28
2019-05-19T13:43:42.896Z,34.60
2019-05-19T13:44:42.857Z,34.41
2019-05-19T13:45:42.817Z,33.82
2019-05-19T13:46:42.784Z,34.11
2019-05-19T13:47:42.744Z,34.60
2019-05-19T13:48:42.704Z,34.60
2019-05-19T13:49:42.670Z,33.92
2019-05-19T13:50:42.629Z,34.41
2019-05-19T13:51:42.595Z,34.70
2019-05-19T13:53:42.520Z,34.00
2019-05-19T13:54:42.482Z,35.46
2019-05-19T13:55:42.446Z,35.46
2019-05-19T13:56:42.402Z,36.44
2019-05-19T13:57:42.364Z,36.24
2019-05-19T13:58:42.325Z,35.25
2019-05-19T13:59:42.290Z,34.47
2019-05-19T14:00:42.257Z,35.25
2019-05-19T14:01:42.214Z,35.64
2019-05-19T14:02:42.180Z,35.35
2019-05-19T14:03:42.141Z,35.45
2019-05-19T14:04:42.101Z,36.52
2019-05-19T14:05:42.062Z,36.04
2019-05-19T14:06:42.025Z,36.23
2019-05-19T14:07:41.992Z,36.31
2019-05-19T14:08:41.955Z,37.15
2019-05-19T14:09:41.910Z,38.10
2019-05-19T14:10:41.875Z,39.24
2019-05-19T14:11:41.838Z,39.31
2019-05-19T14:12:41.801Z,40.17
2019-05-19T14:13:41.762Z,41.22
2019-05-19T14:14:41.723Z,41.69
2019-05-19T14:15:41.685Z,42.95
2019-05-19T14:16:41.646Z,43.22
2019-05-19T14:17:41.608Z,43.78
2019-05-19T14:18:41.568Z,44.15